sensor_id;sensor_type;location;lat;lon;timestamp;pressure;altitude;pressure_sealevel;temperature
15062;BMP180;7630;50.306;8.566;2023-07-31T00:00:24;97680.00;;;19.20
15062;BMP180;7630;50.306;8.566;2023-07-31T00:04:25;97688.00;;;19.10
15062;BMP180;7630;50.306;8.566;2023-07-31T00:08:26;97684.00;;;19.00
15062;BMP180;7630;50.306;8.566;2023-07-31T00:12:28;97681.00;;;19.00
15062;BMP180;7630;50.306;8.566;2023-07-31T00:16:29;97678.00;;;18.10
15062;BMP180;7630;50.306;8.566;2023-07-31T00:20:30;97677.00;;;18.10
15062;BMP180;7630;50.306;8.566;2023-07-31T00:24:31;97666.00;;;18.30
15062;BMP180;7630;50.306;8.566;2023-07-31T00:28:33;97670.00;;;18.50
15062;BMP180;7630;50.306;8.566;2023-07-31T00:32:34;97674.00;;;18.30
15062;BMP180;7630;50.306;8.566;2023-07-31T00:36:35;97662.00;;;18.70
15062;BMP180;7630;50.306;8.566;2023-07-31T00:40:37;97659.00;;;18.30
15062;BMP180;7630;50.306;8.566;2023-07-31T00:44:38;97660.00;;;18.90
15062;BMP180;7630;50.306;8.566;2023-07-31T00:48:40;97659.00;;;18.70
15062;BMP180;7630;50.306;8.566;2023-07-31T00:52:41;97655.00;;;18.90
15062;BMP180;7630;50.306;8.566;2023-07-31T00:56:45;97654.00;;;19.00
15062;BMP180;7630;50.306;8.566;2023-07-31T01:00:46;97651.00;;;19.10
15062;BMP180;7630;50.306;8.566;2023-07-31T01:04:47;97645.00;;;19.10
15062;BMP180;7630;50.306;8.566;2023-07-31T01:12:59;97637.00;;;19.20
15062;BMP180;7630;50.306;8.566;2023-07-31T01:17:01;97634.00;;;18.80
15062;BMP180;7630;50.306;8.566;2023-07-31T01:21:45;97638.00;;;18.60
15062;BMP180;7630;50.306;8.566;2023-07-31T01:26:16;97631.00;;;18.70
15062;BMP180;7630;50.306;8.566;2023-07-31T01:30:21;97628.00;;;18.60
15062;BMP180;7630;50.306;8.566;2023-07-31T01:34:25;97509.00;;;18.90
15062;BMP180;7630;50.306;8.566;2023-07-31T01:38:27;97625.00;;;18.80
15062;BMP180;7630;50.306;8.566;2023-07-31T01:42:28;97616.00;;;18.80
15062;BMP180;7630;50.306;8.566;2023-07-31T01:46:29;97609.00;;;19.30
15062;BMP180;7630;50.306;8.566;2023-07-31T01:50:30;97596.00;;;18.60
15062;BMP180;7630;50.306;8.566;2023-07-31T01:54:32;97599.00;;;19.10
15062;BMP180;7630;50.306;8.566;2023-07-31T01:58:34;97594.00;;;18.90
15062;BMP180;7630;50.306;8.566;2023-07-31T02:02:35;97599.00;;;19.20
15062;BMP180;7630;50.306;8.566;2023-07-31T02:06:36;97594.00;;;19.50
15062;BMP180;7630;50.306;8.566;2023-07-31T02:10:38;97587.00;;;19.60
15062;BMP180;7630;50.306;8.566;2023-07-31T02:14:40;97594.00;;;19.90
15062;BMP180;7630;50.306;8.566;2023-07-31T02:18:41;97572.00;;;19.90
15062;BMP180;7630;50.306;8.566;2023-07-31T02:22:43;97591.00;;;19.80
15062;BMP180;7630;50.306;8.566;2023-07-31T02:26:44;97583.00;;;20.10
15062;BMP180;7630;50.306;8.566;2023-07-31T02:30:45;97578.00;;;19.40
15062;BMP180;7630;50.306;8.566;2023-07-31T02:34:47;97587.00;;;19.40
15062;BMP180;7630;50.306;8.566;2023-07-31T02:38:48;97580.00;;;19.80
15062;BMP180;7630;50.306;8.566;2023-07-31T02:42:49;97584.00;;;19.60
15062;BMP180;7630;50.306;8.566;2023-07-31T02:46:50;97579.00;;;19.20
15062;BMP180;7630;50.306;8.566;2023-07-31T02:50:51;97588.00;;;19.30
15062;BMP180;7630;50.306;8.566;2023-07-31T02:54:52;97592.00;;;19.50
15062;BMP180;7630;50.306;8.566;2023-07-31T02:58:54;97583.00;;;19.60
15062;BMP180;7630;50.306;8.566;2023-07-31T03:02:55;97586.00;;;19.40
15062;BMP180;7630;50.306;8.566;2023-07-31T03:06:56;97577.00;;;20.10
15062;BMP180;7630;50.306;8.566;2023-07-31T03:10:57;97574.00;;;20.10
15062;BMP180;7630;50.306;8.566;2023-07-31T03:14:58;97571.00;;;19.60
15062;BMP180;7630;50.306;8.566;2023-07-31T03:19:00;97564.00;;;19.60
15062;BMP180;7630;50.306;8.566;2023-07-31T03:23:01;97570.00;;;19.50
15062;BMP180;7630;50.306;8.566;2023-07-31T03:27:02;97570.00;;;19.70
15062;BMP180;7630;50.306;8.566;2023-07-31T03:31:04;97584.00;;;19.90
15062;BMP180;7630;50.306;8.566;2023-07-31T03:35:05;97580.00;;;20.10
15062;BMP180;7630;50.306;8.566;2023-07-31T03:39:06;97584.00;;;19.70
15062;BMP180;7630;50.306;8.566;2023-07-31T03:43:07;97579.00;;;19.40
15062;BMP180;7630;50.306;8.566;2023-07-31T03:47:08;97581.00;;;18.80
15062;BMP180;7630;50.306;8.566;2023-07-31T03:51:10;97577.00;;;19.20
15062;BMP180;7630;50.306;8.566;2023-07-31T03:55:11;97575.00;;;18.70
15062;BMP180;7630;50.306;8.566;2023-07-31T03:59:12;97575.00;;;18.50
15062;BMP180;7630;50.306;8.566;2023-07-31T04:03:13;97565.00;;;19.10
15062;BMP180;7630;50.306;8.566;2023-07-31T04:07:14;97562.00;;;19.10
15062;BMP180;7630;50.306;8.566;2023-07-31T04:11:17;97565.00;;;19.10
15062;BMP180;7630;50.306;8.566;2023-07-31T04:15:19;97551.00;;;18.90
15062;BMP180;7630;50.306;8.566;2023-07-31T04:19:20;97560.00;;;18.60
15062;BMP180;7630;50.306;8.566;2023-07-31T04:23:21;97563.00;;;19.00
15062;BMP180;7630;50.306;8.566;2023-07-31T04:27:22;97552.00;;;19.20
15062;BMP180;7630;50.306;8.566;2023-07-31T04:31:23;97557.00;;;19.70
15062;BMP180;7630;50.306;8.566;2023-07-31T04:35:24;97553.00;;;19.20
15062;BMP180;7630;50.306;8.566;2023-07-31T04:39:26;97549.00;;;19.50
15062;BMP180;7630;50.306;8.566;2023-07-31T04:43:27;97542.00;;;20.00
15062;BMP180;7630;50.306;8.566;2023-07-31T04:47:28;97540.00;;;19.60
15062;BMP180;7630;50.306;8.566;2023-07-31T04:51:29;97531.00;;;20.10
15062;BMP180;7630;50.306;8.566;2023-07-31T04:55:30;97540.00;;;20.60
15062;BMP180;7630;50.306;8.566;2023-07-31T04:59:32;97542.00;;;20.10
15062;BMP180;7630;50.306;8.566;2023-07-31T05:03:33;97542.00;;;19.70
15062;BMP180;7630;50.306;8.566;2023-07-31T05:07:34;97544.00;;;20.10
15062;BMP180;7630;50.306;8.566;2023-07-31T05:11:35;97549.00;;;19.90
15062;BMP180;7630;50.306;8.566;2023-07-31T05:15:36;97554.00;;;20.20
15062;BMP180;7630;50.306;8.566;2023-07-31T05:19:37;97543.00;;;20.30
15062;BMP180;7630;50.306;8.566;2023-07-31T05:23:41;97546.00;;;20.00
15062;BMP180;7630;50.306;8.566;2023-07-31T05:27:42;97549.00;;;19.40
15062;BMP180;7630;50.306;8.566;2023-07-31T05:31:43;97557.00;;;20.10
15062;BMP180;7630;50.306;8.566;2023-07-31T05:35:44;97553.00;;;20.60
15062;BMP180;7630;50.306;8.566;2023-07-31T05:39:46;97528.00;;;20.20
15062;BMP180;7630;50.306;8.566;2023-07-31T05:43:47;97541.00;;;20.30
15062;BMP180;7630;50.306;8.566;2023-07-31T05:47:48;97542.00;;;20.40
15062;BMP180;7630;50.306;8.566;2023-07-31T05:51:49;97532.00;;;20.30
15062;BMP180;7630;50.306;8.566;2023-07-31T05:55:50;97534.00;;;21.10
15062;BMP180;7630;50.306;8.566;2023-07-31T05:59:51;97535.00;;;21.00
15062;BMP180;7630;50.306;8.566;2023-07-31T06:03:54;97519.00;;;20.70
15062;BMP180;7630;50.306;8.566;2023-07-31T06:07:56;97514.00;;;20.60
15062;BMP180;7630;50.306;8.566;2023-07-31T06:11:58;97525.00;;;19.80
15062;BMP180;7630;50.306;8.566;2023-07-31T06:15:59;97502.00;;;19.80
15062;BMP180;7630;50.306;8.566;2023-07-31T06:20:00;97521.00;;;20.00
15062;BMP180;7630;50.306;8.566;2023-07-31T06:24:01;97504.00;;;19.80
15062;BMP180;7630;50.306;8.566;2023-07-31T06:28:03;97511.00;;;19.60
15062;BMP180;7630;50.306;8.566;2023-07-31T06:32:04;97519.00;;;20.40
15062;BMP180;7630;50.306;8.566;2023-07-31T06:36:05;97509.00;;;19.80
15062;BMP180;7630;50.306;8.566;2023-07-31T06:40:08;97498.00;;;20.80
15062;BMP180;7630;50.306;8.566;2023-07-31T06:44:10;97489.00;;;20.20
15062;BMP180;7630;50.306;8.566;2023-07-31T06:48:12;97504.00;;;20.10
15062;BMP180;7630;50.306;8.566;2023-07-31T06:52:13;97511.00;;;19.70
15062;BMP180;7630;50.306;8.566;2023-07-31T06:56:14;97492.00;;;19.50
15062;BMP180;7630;50.306;8.566;2023-07-31T07:00:17;97513.00;;;19.90
15062;BMP180;7630;50.306;8.566;2023-07-31T07:04:18;97497.00;;;20.20
15062;BMP180;7630;50.306;8.566;2023-07-31T07:08:19;97511.00;;;20.30
15062;BMP180;7630;50.306;8.566;2023-07-31T07:12:20;97526.00;;;20.40
15062;BMP180;7630;50.306;8.566;2023-07-31T07:16:22;97491.00;;;20.90
15062;BMP180;7630;50.306;8.566;2023-07-31T07:20:23;97476.00;;;21.40
15062;BMP180;7630;50.306;8.566;2023-07-31T07:24:24;97481.00;;;22.60
15062;BMP180;7630;50.306;8.566;2023-07-31T07:28:25;97469.00;;;21.20
15062;BMP180;7630;50.306;8.566;2023-07-31T07:32:27;97495.00;;;20.70
15062;BMP180;7630;50.306;8.566;2023-07-31T07:36:28;97482.00;;;20.30
15062;BMP180;7630;50.306;8.566;2023-07-31T07:40:29;97493.00;;;20.80
15062;BMP180;7630;50.306;8.566;2023-07-31T07:44:31;97471.00;;;20.30
15062;BMP180;7630;50.306;8.566;2023-07-31T07:48:32;97491.00;;;21.40
15062;BMP180;7630;50.306;8.566;2023-07-31T07:52:33;97485.00;;;21.30
15062;BMP180;7630;50.306;8.566;2023-07-31T07:56:34;97485.00;;;21.20
15062;BMP180;7630;50.306;8.566;2023-07-31T08:00:37;97493.00;;;21.40
15062;BMP180;7630;50.306;8.566;2023-07-31T08:04:38;97485.00;;;21.20
15062;BMP180;7630;50.306;8.566;2023-07-31T08:08:39;97484.00;;;21.40
15062;BMP180;7630;50.306;8.566;2023-07-31T08:12:40;97491.00;;;20.80
15062;BMP180;7630;50.306;8.566;2023-07-31T08:16:42;97485.00;;;21.90
15062;BMP180;7630;50.306;8.566;2023-07-31T08:20:43;97472.00;;;22.30
15062;BMP180;7630;50.306;8.566;2023-07-31T08:24:45;97459.00;;;22.50
15062;BMP180;7630;50.306;8.566;2023-07-31T08:28:46;97463.00;;;22.70
15062;BMP180;7630;50.306;8.566;2023-07-31T08:32:49;97462.00;;;23.20
15062;BMP180;7630;50.306;8.566;2023-07-31T08:36:50;97465.00;;;23.20
15062;BMP180;7630;50.306;8.566;2023-07-31T08:40:52;97456.00;;;22.30
15062;BMP180;7630;50.306;8.566;2023-07-31T08:44:55;97476.00;;;21.60
15062;BMP180;7630;50.306;8.566;2023-07-31T08:48:58;97471.00;;;21.30
15062;BMP180;7630;50.306;8.566;2023-07-31T08:53:00;97468.00;;;21.30
15062;BMP180;7630;50.306;8.566;2023-07-31T08:57:01;97469.00;;;22.00
15062;BMP180;7630;50.306;8.566;2023-07-31T09:01:04;97469.00;;;22.40
15062;BMP180;7630;50.306;8.566;2023-07-31T09:05:07;97455.00;;;21.90
15062;BMP180;7630;50.306;8.566;2023-07-31T09:09:08;97457.00;;;21.50
15062;BMP180;7630;50.306;8.566;2023-07-31T09:13:10;97452.00;;;20.90
15062;BMP180;7630;50.306;8.566;2023-07-31T09:17:13;97453.00;;;21.00
15062;BMP180;7630;50.306;8.566;2023-07-31T09:21:14;97458.00;;;20.60
15062;BMP180;7630;50.306;8.566;2023-07-31T09:25:26;97466.00;;;20.40
15062;BMP180;7630;50.306;8.566;2023-07-31T09:29:28;97460.00;;;19.80
15062;BMP180;7630;50.306;8.566;2023-07-31T09:33:30;97458.00;;;19.30
15062;BMP180;7630;50.306;8.566;2023-07-31T09:37:32;97458.00;;;19.60
15062;BMP180;7630;50.306;8.566;2023-07-31T09:41:38;97460.00;;;19.60
15062;BMP180;7630;50.306;8.566;2023-07-31T09:45:41;97458.00;;;20.00
15062;BMP180;7630;50.306;8.566;2023-07-31T09:49:45;97450.00;;;20.00
15062;BMP180;7630;50.306;8.566;2023-07-31T09:53:51;97442.00;;;20.20
15062;BMP180;7630;50.306;8.566;2023-07-31T09:57:54;97426.00;;;20.90
15062;BMP180;7630;50.306;8.566;2023-07-31T10:01:56;97425.00;;;21.00
15062;BMP180;7630;50.306;8.566;2023-07-31T10:06:00;97421.00;;;22.00
15062;BMP180;7630;50.306;8.566;2023-07-31T10:10:04;97425.00;;;21.10
15062;BMP180;7630;50.306;8.566;2023-07-31T10:14:07;97421.00;;;21.60
15062;BMP180;7630;50.306;8.566;2023-07-31T10:18:09;97400.00;;;21.10
15062;BMP180;7630;50.306;8.566;2023-07-31T10:22:11;97402.00;;;21.90
15062;BMP180;7630;50.306;8.566;2023-07-31T10:26:17;97384.00;;;21.00
15062;BMP180;7630;50.306;8.566;2023-07-31T10:30:22;97372.00;;;21.40
15062;BMP180;7630;50.306;8.566;2023-07-31T10:34:24;97375.00;;;20.90
15062;BMP180;7630;50.306;8.566;2023-07-31T10:38:25;97378.00;;;20.70
15062;BMP180;7630;50.306;8.566;2023-07-31T10:42:32;97378.00;;;21.60
15062;BMP180;7630;50.306;8.566;2023-07-31T10:46:36;97373.00;;;21.40
15062;BMP180;7630;50.306;8.566;2023-07-31T10:50:40;97385.00;;;21.40
15062;BMP180;7630;50.306;8.566;2023-07-31T10:54:41;97373.00;;;21.40
15062;BMP180;7630;50.306;8.566;2023-07-31T10:58:44;97381.00;;;22.50
15062;BMP180;7630;50.306;8.566;2023-07-31T11:07:12;97379.00;;;22.50
15062;BMP180;7630;50.306;8.566;2023-07-31T11:11:15;97355.00;;;22.60
15062;BMP180;7630;50.306;8.566;2023-07-31T11:15:17;97359.00;;;21.90
15062;BMP180;7630;50.306;8.566;2023-07-31T11:19:25;97356.00;;;22.20
15062;BMP180;7630;50.306;8.566;2023-07-31T11:23:26;97347.00;;;21.70
15062;BMP180;7630;50.306;8.566;2023-07-31T11:27:28;97363.00;;;21.70
15062;BMP180;7630;50.306;8.566;2023-07-31T11:31:29;97347.00;;;22.50
15062;BMP180;7630;50.306;8.566;2023-07-31T11:35:32;97353.00;;;22.40
15062;BMP180;7630;50.306;8.566;2023-07-31T11:39:33;97345.00;;;22.50
15062;BMP180;7630;50.306;8.566;2023-07-31T11:43:35;97348.00;;;22.80
15062;BMP180;7630;50.306;8.566;2023-07-31T11:47:37;97337.00;;;22.80
15062;BMP180;7630;50.306;8.566;2023-07-31T11:51:39;97330.00;;;22.10
15062;BMP180;7630;50.306;8.566;2023-07-31T11:55:40;97322.00;;;22.70
15062;BMP180;7630;50.306;8.566;2023-07-31T11:59:42;97337.00;;;23.10
15062;BMP180;7630;50.306;8.566;2023-07-31T12:03:44;97322.00;;;23.00
15062;BMP180;7630;50.306;8.566;2023-07-31T12:07:52;97317.00;;;23.00
15062;BMP180;7630;50.306;8.566;2023-07-31T12:11:53;97333.00;;;22.90
15062;BMP180;7630;50.306;8.566;2023-07-31T12:16:01;97309.00;;;23.70
15062;BMP180;7630;50.306;8.566;2023-07-31T12:19:59;97305.00;;;22.90
15062;BMP180;7630;50.306;8.566;2023-07-31T12:24:02;97316.00;;;23.10
15062;BMP180;7630;50.306;8.566;2023-07-31T12:28:04;97317.00;;;23.10
15062;BMP180;7630;50.306;8.566;2023-07-31T12:32:23;97300.00;;;23.20
15062;BMP180;7630;50.306;8.566;2023-07-31T12:36:26;97295.00;;;23.90
15062;BMP180;7630;50.306;8.566;2023-07-31T12:40:29;97291.00;;;23.30
15062;BMP180;7630;50.306;8.566;2023-07-31T12:44:31;97295.00;;;24.00
15062;BMP180;7630;50.306;8.566;2023-07-31T12:48:33;97279.00;;;23.50
15062;BMP180;7630;50.306;8.566;2023-07-31T12:52:35;97266.00;;;23.70
15062;BMP180;7630;50.306;8.566;2023-07-31T12:56:36;97274.00;;;23.50
15062;BMP180;7630;50.306;8.566;2023-07-31T13:00:37;97264.00;;;23.70
15062;BMP180;7630;50.306;8.566;2023-07-31T13:04:38;97273.00;;;24.00
15062;BMP180;7630;50.306;8.566;2023-07-31T13:08:39;97257.00;;;23.80
15062;BMP180;7630;50.306;8.566;2023-07-31T13:12:41;97263.00;;;23.80
15062;BMP180;7630;50.306;8.566;2023-07-31T13:16:42;97267.00;;;23.70
15062;BMP180;7630;50.306;8.566;2023-07-31T13:20:43;97272.00;;;24.30
15062;BMP180;7630;50.306;8.566;2023-07-31T13:24:44;97267.00;;;24.10
15062;BMP180;7630;50.306;8.566;2023-07-31T13:28:45;97262.00;;;24.70
15062;BMP180;7630;50.306;8.566;2023-07-31T13:32:46;97258.00;;;25.20
15062;BMP180;7630;50.306;8.566;2023-07-31T13:36:50;97263.00;;;25.60
15062;BMP180;7630;50.306;8.566;2023-07-31T13:40:51;97246.00;;;24.70
15062;BMP180;7630;50.306;8.566;2023-07-31T13:44:52;97249.00;;;25.20
15062;BMP180;7630;50.306;8.566;2023-07-31T13:48:53;97253.00;;;24.00
15062;BMP180;7630;50.306;8.566;2023-07-31T13:52:56;97240.00;;;24.40
15062;BMP180;7630;50.306;8.566;2023-07-31T13:56:57;97244.00;;;24.70
15062;BMP180;7630;50.306;8.566;2023-07-31T14:00:59;97253.00;;;24.30
15062;BMP180;7630;50.306;8.566;2023-07-31T14:05:00;97252.00;;;23.70
15062;BMP180;7630;50.306;8.566;2023-07-31T14:09:01;97245.00;;;24.00
15062;BMP180;7630;50.306;8.566;2023-07-31T14:13:02;97241.00;;;24.50
15062;BMP180;7630;50.306;8.566;2023-07-31T14:17:04;97224.00;;;24.30
15062;BMP180;7630;50.306;8.566;2023-07-31T14:21:05;97201.00;;;23.60
15062;BMP180;7630;50.306;8.566;2023-07-31T14:25:07;97204.00;;;23.70
15062;BMP180;7630;50.306;8.566;2023-07-31T14:29:10;97210.00;;;24.10
15062;BMP180;7630;50.306;8.566;2023-07-31T14:33:11;97214.00;;;24.00
15062;BMP180;7630;50.306;8.566;2023-07-31T14:37:13;97211.00;;;24.00
15062;BMP180;7630;50.306;8.566;2023-07-31T14:41:14;97213.00;;;23.70
15062;BMP180;7630;50.306;8.566;2023-07-31T14:45:15;97227.00;;;23.60
15062;BMP180;7630;50.306;8.566;2023-07-31T14:49:16;97205.00;;;24.00
15062;BMP180;7630;50.306;8.566;2023-07-31T14:53:17;97202.00;;;23.50
15062;BMP180;7630;50.306;8.566;2023-07-31T14:57:18;97209.00;;;23.80
15062;BMP180;7630;50.306;8.566;2023-07-31T15:01:19;97212.00;;;23.70
15062;BMP180;7630;50.306;8.566;2023-07-31T15:05:20;97217.00;;;24.70
15062;BMP180;7630;50.306;8.566;2023-07-31T15:09:22;97211.00;;;24.40
15062;BMP180;7630;50.306;8.566;2023-07-31T15:13:24;97224.00;;;23.90
15062;BMP180;7630;50.306;8.566;2023-07-31T15:17:25;97221.00;;;23.90
15062;BMP180;7630;50.306;8.566;2023-07-31T15:21:27;97222.00;;;23.50
15062;BMP180;7630;50.306;8.566;2023-07-31T15:25:28;97216.00;;;23.80
15062;BMP180;7630;50.306;8.566;2023-07-31T15:29:30;97205.00;;;23.00
15062;BMP180;7630;50.306;8.566;2023-07-31T15:33:31;97198.00;;;23.10
15062;BMP180;7630;50.306;8.566;2023-07-31T15:37:32;97188.00;;;23.30
15062;BMP180;7630;50.306;8.566;2023-07-31T15:41:35;97198.00;;;24.00
15062;BMP180;7630;50.306;8.566;2023-07-31T15:45:36;97199.00;;;22.90
15062;BMP180;7630;50.306;8.566;2023-07-31T15:49:37;97194.00;;;23.20
15062;BMP180;7630;50.306;8.566;2023-07-31T15:53:38;97202.00;;;23.10
15062;BMP180;7630;50.306;8.566;2023-07-31T15:57:39;97205.00;;;22.50
15062;BMP180;7630;50.306;8.566;2023-07-31T16:01:40;97215.00;;;22.70
15062;BMP180;7630;50.306;8.566;2023-07-31T16:05:41;97198.00;;;23.10
15062;BMP180;7630;50.306;8.566;2023-07-31T16:09:42;97215.00;;;22.60
15062;BMP180;7630;50.306;8.566;2023-07-31T16:13:43;97212.00;;;22.90
15062;BMP180;7630;50.306;8.566;2023-07-31T16:17:44;97201.00;;;21.30
15062;BMP180;7630;50.306;8.566;2023-07-31T16:21:46;97205.00;;;21.50
15062;BMP180;7630;50.306;8.566;2023-07-31T16:25:47;97194.00;;;21.30
15062;BMP180;7630;50.306;8.566;2023-07-31T16:29:49;97181.00;;;20.90
15062;BMP180;7630;50.306;8.566;2023-07-31T16:33:51;97183.00;;;20.90
15062;BMP180;7630;50.306;8.566;2023-07-31T16:37:52;97179.00;;;21.50
15062;BMP180;7630;50.306;8.566;2023-07-31T16:41:54;97157.00;;;21.80
15062;BMP180;7630;50.306;8.566;2023-07-31T16:45:56;97154.00;;;21.60
15062;BMP180;7630;50.306;8.566;2023-07-31T16:49:57;97166.00;;;22.10
15062;BMP180;7630;50.306;8.566;2023-07-31T16:53:58;97164.00;;;22.00
15062;BMP180;7630;50.306;8.566;2023-07-31T16:57:59;97148.00;;;22.20
15062;BMP180;7630;50.306;8.566;2023-07-31T17:02:02;97157.00;;;22.50
15062;BMP180;7630;50.306;8.566;2023-07-31T17:06:04;97159.00;;;21.80
15062;BMP180;7630;50.306;8.566;2023-07-31T17:10:06;97160.00;;;22.00
15062;BMP180;7630;50.306;8.566;2023-07-31T17:14:07;97151.00;;;21.30
15062;BMP180;7630;50.306;8.566;2023-07-31T17:18:09;97148.00;;;21.20
15062;BMP180;7630;50.306;8.566;2023-07-31T17:22:10;97162.00;;;21.40
15062;BMP180;7630;50.306;8.566;2023-07-31T17:26:11;97149.00;;;20.50
15062;BMP180;7630;50.306;8.566;2023-07-31T17:30:14;97146.00;;;20.90
15062;BMP180;7630;50.306;8.566;2023-07-31T17:34:15;97130.00;;;20.90
15062;BMP180;7630;50.306;8.566;2023-07-31T17:38:16;97139.00;;;20.30
15062;BMP180;7630;50.306;8.566;2023-07-31T17:42:17;97129.00;;;19.50
15062;BMP180;7630;50.306;8.566;2023-07-31T17:46:18;97123.00;;;18.70
15062;BMP180;7630;50.306;8.566;2023-07-31T17:50:19;97118.00;;;19.50
15062;BMP180;7630;50.306;8.566;2023-07-31T17:54:21;97103.00;;;20.00
15062;BMP180;7630;50.306;8.566;2023-07-31T17:58:22;97091.00;;;20.80
15062;BMP180;7630;50.306;8.566;2023-07-31T18:02:23;97057.00;;;20.10
15062;BMP180;7630;50.306;8.566;2023-07-31T18:06:25;97088.00;;;18.90
15062;BMP180;7630;50.306;8.566;2023-07-31T18:10:26;97085.00;;;19.00
15062;BMP180;7630;50.306;8.566;2023-07-31T18:14:27;97071.00;;;19.20
15062;BMP180;7630;50.306;8.566;2023-07-31T18:18:29;97067.00;;;19.50
15062;BMP180;7630;50.306;8.566;2023-07-31T18:22:30;97073.00;;;18.60
15062;BMP180;7630;50.306;8.566;2023-07-31T18:26:32;97090.00;;;18.60
15062;BMP180;7630;50.306;8.566;2023-07-31T18:30:33;97083.00;;;18.80
15062;BMP180;7630;50.306;8.566;2023-07-31T18:34:34;97083.00;;;18.40
15062;BMP180;7630;50.306;8.566;2023-07-31T18:38:35;97084.00;;;18.20
15062;BMP180;7630;50.306;8.566;2023-07-31T18:42:36;97064.00;;;18.30
15062;BMP180;7630;50.306;8.566;2023-07-31T18:46:38;97056.00;;;18.40
15062;BMP180;7630;50.306;8.566;2023-07-31T18:50:40;97050.00;;;18.60
15062;BMP180;7630;50.306;8.566;2023-07-31T18:54:43;97044.00;;;18.80
15062;BMP180;7630;50.306;8.566;2023-07-31T18:58:44;97036.00;;;18.60
15062;BMP180;7630;50.306;8.566;2023-07-31T19:02:45;97039.00;;;18.80
15062;BMP180;7630;50.306;8.566;2023-07-31T19:06:47;97043.00;;;19.10
15062;BMP180;7630;50.306;8.566;2023-07-31T19:10:48;97035.00;;;18.80
15062;BMP180;7630;50.306;8.566;2023-07-31T19:14:49;97033.00;;;18.40
15062;BMP180;7630;50.306;8.566;2023-07-31T19:18:50;97032.00;;;18.50
15062;BMP180;7630;50.306;8.566;2023-07-31T19:22:52;97023.00;;;18.40
15062;BMP180;7630;50.306;8.566;2023-07-31T19:26:53;97028.00;;;18.60
15062;BMP180;7630;50.306;8.566;2023-07-31T19:30:54;97031.00;;;18.00
15062;BMP180;7630;50.306;8.566;2023-07-31T19:34:55;97030.00;;;18.90
15062;BMP180;7630;50.306;8.566;2023-07-31T19:38:56;97023.00;;;18.20
15062;BMP180;7630;50.306;8.566;2023-07-31T19:42:57;97021.00;;;18.50
15062;BMP180;7630;50.306;8.566;2023-07-31T19:47:00;97018.00;;;18.50
15062;BMP180;7630;50.306;8.566;2023-07-31T19:51:03;97017.00;;;18.10
15062;BMP180;7630;50.306;8.566;2023-07-31T19:55:05;97019.00;;;18.30
15062;BMP180;7630;50.306;8.566;2023-07-31T19:59:07;97002.00;;;18.50
15062;BMP180;7630;50.306;8.566;2023-07-31T20:03:08;96993.00;;;18.80
15062;BMP180;7630;50.306;8.566;2023-07-31T20:07:09;96984.00;;;19.00
15062;BMP180;7630;50.306;8.566;2023-07-31T20:11:10;96983.00;;;18.80
15062;BMP180;7630;50.306;8.566;2023-07-31T20:15:20;96983.00;;;18.90
15062;BMP180;7630;50.306;8.566;2023-07-31T20:19:22;96973.00;;;18.70
15062;BMP180;7630;50.306;8.566;2023-07-31T20:23:23;96969.00;;;19.10
15062;BMP180;7630;50.306;8.566;2023-07-31T20:27:26;96954.00;;;18.90
15062;BMP180;7630;50.306;8.566;2023-07-31T20:31:27;96954.00;;;18.60
15062;BMP180;7630;50.306;8.566;2023-07-31T20:35:29;96946.00;;;18.50
15062;BMP180;7630;50.306;8.566;2023-07-31T20:39:30;96945.00;;;18.50
15062;BMP180;7630;50.306;8.566;2023-07-31T20:43:31;96939.00;;;19.00
15062;BMP180;7630;50.306;8.566;2023-07-31T20:47:32;96928.00;;;18.30
15062;BMP180;7630;50.306;8.566;2023-07-31T20:51:33;96924.00;;;18.20
15062;BMP180;7630;50.306;8.566;2023-07-31T20:55:40;96926.00;;;17.90
15062;BMP180;7630;50.306;8.566;2023-07-31T20:59:42;96850.00;;;18.70
15062;BMP180;7630;50.306;8.566;2023-07-31T21:03:43;96919.00;;;18.00
15062;BMP180;7630;50.306;8.566;2023-07-31T21:07:45;96913.00;;;18.30
15062;BMP180;7630;50.306;8.566;2023-07-31T21:11:46;96900.00;;;18.10
15062;BMP180;7630;50.306;8.566;2023-07-31T21:15:47;96886.00;;;18.00
15062;BMP180;7630;50.306;8.566;2023-07-31T21:19:48;96880.00;;;18.40
15062;BMP180;7630;50.306;8.566;2023-07-31T21:23:49;96877.00;;;18.40
15062;BMP180;7630;50.306;8.566;2023-07-31T21:27:50;96861.00;;;18.60
15062;BMP180;7630;50.306;8.566;2023-07-31T21:31:52;96845.00;;;18.40
15062;BMP180;7630;50.306;8.566;2023-07-31T21:35:55;96839.00;;;17.40
15062;BMP180;7630;50.306;8.566;2023-07-31T21:39:56;96837.00;;;17.60
15062;BMP180;7630;50.306;8.566;2023-07-31T21:43:57;96821.00;;;17.70
15062;BMP180;7630;50.306;8.566;2023-07-31T21:47:58;96807.00;;;18.00
15062;BMP180;7630;50.306;8.566;2023-07-31T21:51:59;96803.00;;;17.90
15062;BMP180;7630;50.306;8.566;2023-07-31T21:56:00;96787.00;;;17.60
15062;BMP180;7630;50.306;8.566;2023-07-31T22:00:06;96784.00;;;17.70
15062;BMP180;7630;50.306;8.566;2023-07-31T22:04:07;96769.00;;;17.70
15062;BMP180;7630;50.306;8.566;2023-07-31T22:08:08;96772.00;;;17.60
15062;BMP180;7630;50.306;8.566;2023-07-31T22:12:09;96767.00;;;17.90
15062;BMP180;7630;50.306;8.566;2023-07-31T22:16:10;96760.00;;;17.40
15062;BMP180;7630;50.306;8.566;2023-07-31T22:20:12;96756.00;;;17.90
15062;BMP180;7630;50.306;8.566;2023-07-31T22:24:13;96744.00;;;17.30
15062;BMP180;7630;50.306;8.566;2023-07-31T22:28:14;96743.00;;;17.40
15062;BMP180;7630;50.306;8.566;2023-07-31T22:32:17;96744.00;;;17.50
15062;BMP180;7630;50.306;8.566;2023-07-31T22:36:18;96721.00;;;17.20
15062;BMP180;7630;50.306;8.566;2023-07-31T22:40:19;96740.00;;;18.30
15062;BMP180;7630;50.306;8.566;2023-07-31T22:44:20;96733.00;;;17.60
15062;BMP180;7630;50.306;8.566;2023-07-31T22:48:26;96728.00;;;18.50
15062;BMP180;7630;50.306;8.566;2023-07-31T22:52:24;96743.00;;;18.00
15062;BMP180;7630;50.306;8.566;2023-07-31T22:56:25;96718.00;;;18.00
15062;BMP180;7630;50.306;8.566;2023-07-31T23:00:26;96715.00;;;17.40
15062;BMP180;7630;50.306;8.566;2023-07-31T23:04:28;96693.00;;;17.70
15062;BMP180;7630;50.306;8.566;2023-07-31T23:08:31;96697.00;;;18.00
15062;BMP180;7630;50.306;8.566;2023-07-31T23:12:32;96674.00;;;17.80
15062;BMP180;7630;50.306;8.566;2023-07-31T23:16:33;96692.00;;;17.60
15062;BMP180;7630;50.306;8.566;2023-07-31T23:20:34;96685.00;;;18.30
15062;BMP180;7630;50.306;8.566;2023-07-31T23:24:35;96684.00;;;17.80
15062;BMP180;7630;50.306;8.566;2023-07-31T23:28:37;96674.00;;;17.60
15062;BMP180;7630;50.306;8.566;2023-07-31T23:32:38;96664.00;;;17.70
15062;BMP180;7630;50.306;8.566;2023-07-31T23:36:41;96653.00;;;18.70
15062;BMP180;7630;50.306;8.566;2023-07-31T23:40:42;96644.00;;;19.20